Flight Track Log - Related Links

Times and Time Zones

All times are in EDT time to prevent confusion due to time zone crossing. See the C-GONN flight status page for this flight to view local times or setup timezone preferences in your user account.

Time Position Orientation Groundspeed Altitude Reporting Facility
EDT Latitude Longitude Course Direction KTS MPH feet Rate Location/Type
Sat 09:41:00 PM 49.0667 -122.8321 90° East  Level FlightAware Approximate
Sat 09:42:00 PM 49.0667 -122.7323 90° East  Level FlightAware Approximate
Sat 09:42:37 PM 48.9833 -123.1667 90° East 180 207 6,800  Level Vancouver Center
Sat 09:43:00 PM 49.0667 -122.6325 90° East  Level FlightAware Approximate
Sat 09:43:37 PM 48.9667 -123.0833 107° East 180 207 7,800  Level Vancouver Center
Sat 09:44:00 PM 49.0667 -122.5327 90° East  Level FlightAware Approximate
Sat 09:44:37 PM 48.9667 -123.0167 90° East 190 219 8,800  Level Vancouver Center
Sat 09:45:00 PM 49.0667 -122.4328 90° East  Level FlightAware Approximate
Sat 09:45:37 PM 48.9667 -122.9333 90° East 190 219 9,800  Level Vancouver Center
Sat 09:46:00 PM 49.0667 -122.3330 90° East  Level FlightAware Approximate
Sat 09:46:37 PM 48.9667 -122.8667 90° East 190 219 10,800  Level Vancouver Center
Sat 09:47:00 PM 49.0667 -122.2332 90° East  Level FlightAware Approximate
Sat 09:47:37 PM 48.9833 -122.7500 78° East 200 230 12,000  Level Vancouver Center
Sat 09:48:37 PM 49.0000 -122.6833 69° East 200 230 12,800 950 Climbing Vancouver Center
Sat 09:49:37 PM 49.0167 -122.6000 73° East 200 230 13,900 950 Climbing Vancouver Center
Sat 09:50:37 PM 49.0333 -122.5333 69° East 210 242 14,700 850 Climbing Vancouver Center
Sat 09:51:37 PM 49.0500 -122.4167 78° East 210 242 15,600 900 Climbing Vancouver Center
Sat 09:52:37 PM 49.0667 -122.3500 69° East 210 242 16,500 900 Climbing Vancouver Center
Sat 09:53:37 PM 49.0833 -122.2500 76° East 220 253 17,400 850 Climbing Vancouver Center
Sat 09:54:37 PM 49.1000 -122.1667 73° East 220 253 18,200 700 Climbing Vancouver Center
Sat 09:55:37 PM 49.0833 -122.0667 104° East 220 253 18,800 600 Climbing Vancouver Center
Sat 09:56:37 PM 49.1000 -121.9833 73° East 230 265 19,400 750 Climbing Vancouver Center
Sat 09:57:37 PM 49.1167 -121.8833 76° East 230 265 20,300 850 Climbing Vancouver Center
Sat 09:58:37 PM 49.1333 -121.7833 76° East 220 253 21,100 700 Climbing Vancouver Center
Sat 09:59:37 PM 49.1500 -121.7000 73° East 220 253 21,700 600 Climbing Vancouver Center
Sat 10:00:37 PM 49.1667 -121.6000 76° East 220 253 22,300 700 Climbing Vancouver Center
Sat 10:01:37 PM 49.1833 -121.5333 69° East 220 253 23,100 650 Climbing Vancouver Center
Sat 10:02:37 PM 49.2000 -121.4167 78° East 220 253 23,600 700 Climbing Vancouver Center
Sat 10:03:37 PM 49.2167 -121.3500 69° East 210 242 24,500 700 Climbing Vancouver Center
Sat 10:04:37 PM 49.2333 -121.2667 73° East 200 230 25,000 250 Climbing Vancouver Center
Sat 10:05:37 PM 49.2333 -121.1667 90° East 210 242 25,000  Level Vancouver Center
Sat 10:06:37 PM 49.2500 -121.0667 76° East 240 276 25,000  Level Vancouver Center
Sat 10:07:37 PM 49.2667 -120.9667 76° East 250 288 25,000  Level Vancouver Center
Sat 10:08:37 PM 49.2833 -120.8500 78° East 260 299 25,000  Level Vancouver Center
Sat 10:09:37 PM 49.3000 -120.7500 76° East 260 299 25,000  Level Vancouver Center
Sat 10:10:37 PM 49.3167 -120.6167 79° East 260 299 25,000  Level Vancouver Center
Sat 10:11:37 PM 49.3333 -120.5167 76° East 260 299 25,000  Level Vancouver Center
Sat 10:12:37 PM 49.3500 -120.4167 76° East 260 299 25,000  Level Vancouver Center
Sat 10:13:37 PM 49.3667 -120.3167 76° East 260 299 25,000  Level Vancouver Center
Sat 10:14:37 PM 49.3833 -120.2167 76° East 260 299 25,000  Level Vancouver Center
Sat 10:15:37 PM 49.4000 -120.0833 79° East 260 299 25,000  Level Vancouver Center
Sat 10:16:37 PM 49.4000 -119.9833 90° East 260 299 25,000  Level Vancouver Center
Sat 10:17:37 PM 49.4167 -119.8667 78° East 260 299 25,000  Level Vancouver Center
Sat 10:18:37 PM 49.4333 -119.7667 76° East 260 299 25,000  Level Vancouver Center
Sat 10:19:37 PM 49.4667 -119.6667 63° Northeast 260 299 25,000  Level Vancouver Center
Sat 10:20:37 PM 49.4833 -119.5667 76° East 250 288 25,000  Level Vancouver Center
Sat 10:21:37 PM 49.4833 -119.4500 90° East 250 288 25,000  Level Vancouver Center
Sat 10:22:37 PM 49.5000 -119.3500 76° East 250 288 25,000  Level Vancouver Center
Sat 10:23:37 PM 49.5167 -119.2500 76° East 250 288 25,000  Level Vancouver Center
Sat 10:24:37 PM 49.5333 -119.1500 76° East 250 288 25,000  Level Vancouver Center
Sat 10:25:37 PM 49.5333 -119.0333 90° East 250 288 25,000  Level Vancouver Center
Sat 10:26:37 PM 49.5500 -118.9333 76° East 250 288 25,000  Level Vancouver Center
Sat 10:27:37 PM 49.5667 -118.8333 76° East 250 288 25,000  Level Vancouver Center
Sat 10:28:37 PM 49.5833 -118.7167 78° East 250 288 25,000  Level Vancouver Center
Sat 10:29:37 PM 49.5833 -118.6167 90° East 250 288 25,000  Level Vancouver Center
Sat 10:30:37 PM 49.6000 -118.5167 76° East 250 288 25,000  Level Vancouver Center
Sat 10:31:37 PM 49.6333 -118.4167 63° Northeast 250 288 25,000  Level Vancouver Center
Sat 10:32:37 PM 49.6333 -118.3000 90° East 250 288 25,000  Level Vancouver Center
Sat 10:33:37 PM 49.6500 -118.2000 76° East 240 276 25,000  Level Vancouver Center
Sat 10:34:37 PM 49.6667 -118.1000 76° East 240 276 25,000  Level Vancouver Center
Sat 10:35:37 PM 49.6667 -117.9833 90° East 240 276 25,000  Level Vancouver Center
Sat 10:36:37 PM 49.6833 -117.8833 76° East 240 276 25,000  Level Vancouver Center
Sat 10:37:37 PM 49.7000 -117.8000 73° East 240 276 25,000  Level Vancouver Center
Sat 10:38:37 PM 49.7167 -117.7000 76° East 240 276 25,000  Level Vancouver Center
Sat 10:39:37 PM 49.7167 -117.6000 90° East 240 276 25,000  Level Vancouver Center
Sat 10:40:37 PM 49.7333 -117.5000 76° East 240 276 25,000  Level Vancouver Center
Sat 10:41:37 PM 49.7500 -117.3833 77° East 240 276 25,000  Level Vancouver Center
Sat 10:42:37 PM 49.7500 -117.2833 90° East 240 276 25,000  Level Vancouver Center
Sat 10:43:37 PM 49.7667 -117.1833 75° East 240 276 25,000  Level Vancouver Center
Sat 10:44:37 PM 49.7833 -117.1000 73° East 240 276 25,000  Level Vancouver Center
Sat 10:45:37 PM 49.7833 -116.9667 90° East 240 276 25,000  Level Vancouver Center
Sat 10:46:37 PM 49.8000 -116.8833 73° East 250 288 25,000 -700 Level Vancouver Center
Sat 10:47:37 PM 49.8167 -116.7500 79° East 260 299 23,600 -1,450 Descending Vancouver Center
Sat 10:48:37 PM 49.8333 -116.6500 75° East 270 311 22,100 -1,400 Descending Vancouver Center
Sat 10:49:37 PM 49.8500 -116.5500 75° East 260 299 20,800 -1,400 Descending Vancouver Center
Sat 10:50:37 PM 49.8500 -116.4333 90° East 250 288 19,300 -1,350 Descending Vancouver Center
Sat 10:51:37 PM 49.8667 -116.3333 75° East 250 288 18,100 -1,500 Descending Vancouver Center
Sat 10:52:37 PM 49.8667 -116.2333 90° East 260 299 16,300 -1,500 Descending Vancouver Center
Sat 10:53:37 PM 49.8833 -116.1500 73° East 250 288 15,100 -1,250 Descending Vancouver Center
Sat 10:54:37 PM 49.9000 -116.0333 77° East 240 276 13,800 -1,300 Descending Vancouver Center
Sat 10:55:37 PM 49.9000 -115.9667 90° East 230 265 12,500 -1,150 Descending Vancouver Center
Sat 10:56:37 PM 49.9167 -115.8500 77° East 220 253 11,500 -900 Descending Vancouver Center
Sat 10:57:37 PM 49.9167 -115.8000 90° East 190 219 10,700 -800 Descending Vancouver Center
Sat 10:59:00 PM 49.8334 -115.8300 169° South  Level FlightAware Approximate
Sat 11:06:00 PM 49.6108 -115.7822 168° South  Level Estimated
Sat 11:07:00 PM 49.6108 -115.7822 168° South  Level Estimated
Sat 11:08:00 PM 49.6108 -115.7822 168° South  Level Estimated
Sat 11:09:00 PM 49.6108 -115.7822 168° South  Level Estimated

Login

Don't have an account? Register now (free) for customized features, flight alerts, and more!